Time;durP1;ratioP1;P1;durP2;ratioP2;P2;SDS_P1;SDS_P2;PMS_P1;PMS_P2;Temp;Humidity;BMP_temperature;BMP_pressure;BME280_temperature;BME280_humidity;BME280_pressure;Samples;Min_cycle;Max_cycle;Signal;HPM_P1;HPM_P2
2023/10/02 00:00:25;;;;;;;4.80;4.03;;;22.40;57.80;;;;;;5071102;28;20480;-66
2023/10/02 00:02:51;;;;;;;4.93;3.70;;;22.40;57.70;;;;;;5070982;28;20432;-66
2023/10/02 00:05:40;;;;;;;4.80;4.20;;;22.40;57.80;;;;;;5069664;28;20844;-67
2023/10/02 00:08:02;;;;;;;6.40;4.73;;;22.40;57.80;;;;;;5070940;28;20584;-66
2023/10/02 00:10:30;;;;;;;5.73;4.07;;;22.40;57.80;;;;;;5070891;28;20428;-66
2023/10/02 00:12:59;;;;;;;5.10;3.80;;;22.40;57.80;;;;;;5070828;28;20217;-66
2023/10/02 00:15:26;;;;;;;4.60;3.40;;;22.40;57.80;;;;;;5070972;28;20473;-66
2023/10/02 00:17:51;;;;;;;4.97;4.23;;;22.40;57.80;;;;;;5069521;28;20424;-66
2023/10/02 00:20:23;;;;;;;4.60;3.40;;;22.40;57.80;;;;;;5070855;28;20819;-67
2023/10/02 00:22:50;;;;;;;5.03;4.27;;;22.40;57.80;;;;;;5070760;28;20222;-66
2023/10/02 00:25:22;;;;;;;5.40;4.13;;;22.40;57.80;;;;;;5070736;28;20423;-66
2023/10/02 00:27:51;;;;;;;5.00;4.10;;;22.40;57.80;;;;;;5071075;28;20400;-67
2023/10/02 00:30:20;;;;;;;5.37;3.60;;;22.40;57.80;;;;;;5070799;28;20412;-66
2023/10/02 00:32:47;;;;;;;6.20;3.83;;;22.40;57.80;;;;;;5070816;28;20517;-65
2023/10/02 00:35:13;;;;;;;4.60;3.73;;;22.40;57.80;;;;;;5069249;28;20431;-66
2023/10/02 00:37:43;;;;;;;5.10;3.83;;;22.40;57.80;;;;;;5070561;28;20405;-67
2023/10/02 00:40:22;;;;;;;5.30;4.77;;;22.40;57.80;;;;;;5070927;28;21195;-66
2023/10/02 00:45:49;;;;;;;4.77;3.90;;;22.40;57.80;;;;;;5075033;28;20912;-66
2023/10/02 00:48:25;;;;;;;4.30;3.53;;;22.30;57.80;;;;;;5073261;28;20420;-66
2023/10/02 00:50:54;;;;;;;5.50;4.13;;;22.40;57.90;;;;;;5073332;28;20406;-67
2023/10/02 00:53:38;;;;;;;3.90;3.50;;;22.30;57.80;;;;;;5074565;28;20521;-66
2023/10/02 00:56:28;;;;;;;4.07;3.67;;;22.30;57.80;;;;;;5074619;28;20415;-66
2023/10/02 00:59:01;;;;;;;4.90;4.30;;;22.30;57.70;;;;;;5074569;28;20381;-67
2023/10/02 01:01:27;;;;;;;5.30;3.90;;;22.40;57.90;;;;;;5074533;28;20399;-66
2023/10/02 01:04:10;;;;;;;4.53;3.83;;;22.30;57.80;;;;;;5074263;28;20522;-66
2023/10/02 01:07:11;;;;;;;5.10;4.17;;;22.30;57.80;;;;;;5074389;28;20770;-68
2023/10/02 01:09:33;;;;;;;4.13;3.60;;;22.30;57.80;;;;;;5073969;28;20426;-66
2023/10/02 01:11:59;;;;;;;4.77;4.07;;;22.30;57.80;;;;;;5074156;28;20447;-66
2023/10/02 01:17:14;;;;;;;4.07;3.10;;;22.30;57.80;;;;;;5074483;28;20540;-67
2023/10/02 01:19:54;;;;;;;3.83;3.40;;;22.30;57.80;;;;;;5073922;28;20423;-66
2023/10/02 01:22:28;;;;;;;4.30;3.60;;;22.30;57.80;;;;;;5074097;28;20446;-66
2023/10/02 01:25:18;;;;;;;4.70;4.07;;;22.30;57.80;;;;;;5074005;28;20404;-67
2023/10/02 01:27:50;;;;;;;4.73;3.73;;;22.30;58.30;;;;;;5073943;28;20427;-68
2023/10/02 01:30:18;;;;;;;5.10;3.97;;;22.30;57.80;;;;;;5073989;28;20400;-66
2023/10/02 01:33:12;;;;;;;4.47;4.03;;;22.30;57.80;;;;;;5073738;28;20987;-67
2023/10/02 01:35:49;;;;;;;3.40;3.07;;;22.30;57.80;;;;;;5073897;28;20506;-66
2023/10/02 01:38:30;;;;;;;4.20;3.80;;;22.30;57.80;;;;;;5073770;28;20912;-67
2023/10/02 01:41:04;;;;;;;4.73;3.60;;;22.30;57.80;;;;;;5073707;28;20526;-67
2023/10/02 01:43:55;;;;;;;3.43;3.10;;;22.30;57.80;;;;;;5073674;28;20784;-68
2023/10/02 01:46:22;;;;;;;4.00;3.30;;;22.40;57.90;;;;;;5073638;28;20750;-67
2023/10/02 01:48:49;;;;;;;5.40;4.00;;;22.30;57.90;;;;;;5073694;28;20873;-67
2023/10/02 01:51:26;;;;;;;4.93;3.87;;;22.30;57.90;;;;;;5073438;28;20449;-67
2023/10/02 01:54:15;;;;;;;3.87;3.10;;;22.30;57.90;;;;;;5072184;28;20436;-67
2023/10/02 01:56:47;;;;;;;5.37;4.23;;;22.40;57.90;;;;;;5073369;28;20401;-66
2023/10/02 01:59:19;;;;;;;4.07;3.60;;;22.30;57.90;;;;;;5073380;28;20480;-66
2023/10/02 02:01:51;;;;;;;4.60;4.00;;;22.30;57.90;;;;;;5073338;28;20420;-66
2023/10/02 02:04:28;;;;;;;4.20;3.07;;;22.30;57.90;;;;;;5073282;28;20432;-67
2023/10/02 02:06:56;;;;;;;4.80;4.10;;;22.30;57.90;;;;;;5073255;28;20423;-67
2023/10/02 02:09:31;;;;;;;5.13;3.97;;;22.30;57.90;;;;;;5073177;28;20445;-66
2023/10/02 02:12:10;;;;;;;4.00;3.57;;;22.30;57.80;;;;;;5073001;28;20448;-68
2023/10/02 02:14:49;;;;;;;5.37;4.20;;;22.30;57.80;;;;;;5072906;28;20481;-66
2023/10/02 02:17:16;;;;;;;3.90;3.10;;;22.30;57.90;;;;;;5071612;28;20482;-67
2023/10/02 02:19:48;;;;;;;4.67;3.80;;;22.30;57.80;;;;;;5072806;28;20432;-66
2023/10/02 02:22:36;;;;;;;3.40;3.10;;;22.30;57.90;;;;;;5072977;28;20415;-66
2023/10/02 02:25:04;;;;;;;4.53;3.53;;;22.30;57.90;;;;;;5072772;28;20491;-66
2023/10/02 02:27:29;;;;;;;3.50;3.13;;;22.30;57.90;;;;;;5071609;28;20471;-66
2023/10/02 02:29:57;;;;;;;3.90;3.50;;;22.30;57.90;;;;;;5072703;28;20444;-66
2023/10/02 02:32:44;;;;;;;4.57;3.67;;;22.30;57.80;;;;;;5072569;28;20676;-67
2023/10/02 02:35:14;;;;;;;4.70;3.53;;;22.30;57.90;;;;;;5072687;28;20419;-67
2023/10/02 02:37:41;;;;;;;4.33;3.63;;;22.30;57.90;;;;;;5072541;28;20484;-66
2023/10/02 02:40:23;;;;;;;3.60;3.20;;;22.30;57.90;;;;;;5072494;28;20424;-66
2023/10/02 02:42:52;;;;;;;3.60;3.10;;;22.30;57.90;;;;;;5072414;28;20588;-67
2023/10/02 02:45:31;;;;;;;3.67;3.20;;;22.30;57.90;;;;;;5072365;28;20416;-69
2023/10/02 02:48:07;;;;;;;3.80;2.83;;;22.30;57.90;;;;;;5072346;28;20483;-68
2023/10/02 02:50:37;;;;;;;4.10;3.50;;;22.30;57.90;;;;;;5072581;28;20424;-68
2023/10/02 02:53:16;;;;;;;3.67;3.10;;;22.30;57.90;;;;;;5072073;28;20460;-66
2023/10/02 02:55:43;;;;;;;3.97;3.60;;;22.30;57.90;;;;;;5072228;28;20381;-65
2023/10/02 02:58:09;;;;;;;6.03;3.87;;;22.30;57.90;;;;;;5072132;28;20429;-65
2023/10/02 03:00:39;;;;;;;3.90;3.17;;;22.30;57.90;;;;;;5072161;28;20441;-67
2023/10/02 03:03:29;;;;;;;3.30;3.00;;;22.30;57.90;;;;;;5072015;28;20222;-66
2023/10/02 03:05:52;;;;;;;3.43;2.90;;;22.30;57.90;;;;;;5086709;28;20423;-66
2023/10/02 03:08:19;;;;;;;4.70;3.80;;;22.30;57.90;;;;;;5092102;28;20462;-64
2023/10/02 03:10:57;;;;;;;4.37;3.50;;;22.30;57.90;;;;;;5092138;28;20423;-66
2023/10/02 03:13:22;;;;;;;4.70;3.73;;;22.30;57.90;;;;;;5092085;28;20859;-66
2023/10/02 03:15:49;;;;;;;3.30;3.00;;;22.30;57.90;;;;;;5092073;28;20448;-66
2023/10/02 03:21:24;;;;;;;3.93;3.53;;;22.30;57.90;;;;;;5087017;28;20440;-68
2023/10/02 03:23:53;;;;;;;4.90;3.50;;;22.30;57.90;;;;;;5092124;28;20866;-67
2023/10/02 03:26:27;;;;;;;4.27;3.30;;;22.30;57.90;;;;;;5091906;28;20410;-65
2023/10/02 03:29:02;;;;;;;3.53;2.93;;;22.30;57.90;;;;;;5091789;28;20398;-65
2023/10/02 03:31:37;;;;;;;3.97;3.30;;;22.30;57.90;;;;;;5091748;28;20496;-65
2023/10/02 03:34:27;;;;;;;4.50;3.00;;;22.30;57.90;;;;;;5091663;28;20427;-65
2023/10/02 03:37:08;;;;;;;3.63;2.97;;;22.30;57.90;;;;;;5090626;28;20441;-66
2023/10/02 03:42:23;;;;;;;3.67;3.20;;;22.30;57.90;;;;;;5091816;28;20445;-66
2023/10/02 03:44:54;;;;;;;4.20;3.33;;;22.30;57.90;;;;;;5091421;28;20477;-65
2023/10/02 03:47:20;;;;;;;3.30;2.80;;;22.30;57.90;;;;;;5091515;28;20384;-66
2023/10/02 03:49:46;;;;;;;3.53;3.23;;;22.30;57.90;;;;;;5091452;28;20424;-66
2023/10/02 03:52:14;;;;;;;3.30;3.00;;;22.30;57.90;;;;;;5091306;28;20496;-67
2023/10/02 03:54:46;;;;;;;4.93;3.60;;;22.30;57.90;;;;;;5091239;28;20194;-66
2023/10/02 04:00:18;;;;;;;3.50;3.20;;;22.30;57.90;;;;;;5091569;28;20388;-66
2023/10/02 04:02:45;;;;;;;3.80;3.33;;;22.30;57.90;;;;;;5091215;28;20399;-66
2023/10/02 04:05:15;;;;;;;4.40;3.53;;;22.30;57.90;;;;;;5091174;28;20408;-67
2023/10/02 04:07:47;;;;;;;4.00;3.20;;;22.30;57.90;;;;;;5091392;28;20418;-66
2023/10/02 04:10:13;;;;;;;5.80;3.90;;;22.30;57.90;;;;;;5089931;28;20400;-66
2023/10/02 04:12:50;;;;;;;4.10;3.57;;;22.30;57.90;;;;;;5090903;28;20822;-66
2023/10/02 04:15:17;;;;;;;4.53;3.57;;;22.30;57.90;;;;;;5091078;28;20387;-66
2023/10/02 04:17:49;;;;;;;4.13;3.20;;;22.20;57.90;;;;;;5090398;28;20426;-65
2023/10/02 04:20:27;;;;;;;3.13;2.83;;;22.30;58.50;;;;;;5090796;28;20438;-65
2023/10/02 04:22:55;;;;;;;3.47;3.17;;;22.30;57.90;;;;;;5090852;28;20435;-66
2023/10/02 04:25:24;;;;;;;4.43;3.23;;;22.30;57.90;;;;;;5090823;28;20498;-66
2023/10/02 04:33:07;;;;;;;4.83;3.50;;;22.30;57.90;;;;;;5090951;28;20212;-66
2023/10/02 04:35:45;;;;;;;3.50;3.13;;;22.30;57.90;;;;;;5090842;28;20427;-66
2023/10/02 04:38:14;;;;;;;4.30;3.03;;;22.20;57.90;;;;;;5090749;28;20396;-66
2023/10/02 04:40:49;;;;;;;4.13;3.47;;;22.20;57.90;;;;;;5090719;28;20469;-67
2023/10/02 04:45:44;;;;;;;4.90;3.40;;;22.20;57.90;;;;;;5090982;28;20907;-67
2023/10/02 04:48:10;;;;;;;4.00;3.07;;;22.30;57.90;;;;;;5090665;28;20786;-66
2023/10/02 04:50:45;;;;;;;4.07;3.20;;;22.30;57.90;;;;;;5090727;28;20403;-65
2023/10/02 04:55:43;;;;;;;4.50;3.00;;;22.20;57.70;;;;;;5090951;28;20451;-64
2023/10/02 04:58:20;;;;;;;4.23;3.83;;;22.20;57.70;;;;;;5090585;28;20404;-67
2023/10/02 05:03:32;;;;;;;3.47;3.00;;;22.20;57.70;;;;;;5090924;28;20505;-66
2023/10/02 05:05:59;;;;;;;4.90;3.20;;;22.20;57.70;;;;;;5090564;28;20451;-65
2023/10/02 05:08:40;;;;;;;3.13;2.73;;;22.20;58.30;;;;;;5090593;28;21118;-66
2023/10/02 05:11:07;;;;;;;3.17;2.73;;;22.30;57.70;;;;;;5090215;28;20385;-67
2023/10/02 05:16:33;;;;;;;4.30;3.37;;;22.20;57.70;;;;;;5085409;28;20794;-62
2023/10/02 05:18:59;;;;;;;3.93;3.13;;;22.20;57.70;;;;;;5090383;28;20419;-65
2023/10/02 05:24:11;;;;;;;4.70;3.57;;;22.20;57.60;;;;;;5090255;28;20861;-66
2023/10/02 05:26:39;;;;;;;3.83;2.67;;;22.20;57.60;;;;;;5090338;28;20927;-65
2023/10/02 05:29:12;;;;;;;4.70;3.50;;;22.20;57.60;;;;;;5093531;28;20426;-67
2023/10/02 05:31:40;;;;;;;4.70;3.60;;;22.20;57.60;;;;;;5093938;28;20451;-64
2023/10/02 05:34:25;;;;;;;4.27;3.50;;;22.20;57.60;;;;;;5093899;28;20510;-66
2023/10/02 05:37:11;;;;;;;5.43;3.47;;;22.20;57.50;;;;;;5094284;28;20471;-67
2023/10/02 05:39:41;;;;;;;5.60;2.80;;;22.20;57.50;;;;;;5094276;28;20474;-66
2023/10/02 05:42:16;;;;;;;6.43;3.73;;;22.20;57.50;;;;;;5093794;28;20418;-67
2023/10/02 05:44:45;;;;;;;4.00;3.00;;;22.20;57.60;;;;;;5093773;28;20427;-64
2023/10/02 05:47:15;;;;;;;5.20;3.50;;;22.20;57.50;;;;;;5093803;28;20430;-65
2023/10/02 05:49:48;;;;;;;6.10;3.97;;;22.20;57.60;;;;;;5093829;28;20398;-66
2023/10/02 05:52:14;;;;;;;4.27;3.33;;;22.20;57.60;;;;;;5093680;28;20942;-65
2023/10/02 05:54:47;;;;;;;3.90;3.07;;;22.20;57.50;;;;;;5093535;28;20426;-65
2023/10/02 05:57:13;;;;;;;4.57;3.03;;;22.20;57.50;;;;;;5093483;28;20388;-68
2023/10/02 05:59:47;;;;;;;3.97;2.90;;;22.20;57.50;;;;;;5093548;28;20449;-67
2023/10/02 06:02:13;;;;;;;5.87;3.93;;;22.20;57.50;;;;;;5093502;28;20445;-65
2023/10/02 06:04:46;;;;;;;5.37;3.47;;;22.20;57.50;;;;;;5093449;28;20419;-67
2023/10/02 06:07:12;;;;;;;5.10;3.30;;;22.20;57.50;;;;;;5093354;28;20411;-68
2023/10/02 06:09:44;;;;;;;4.30;3.70;;;22.20;57.50;;;;;;5093354;28;20415;-66
2023/10/02 06:12:11;;;;;;;7.43;3.77;;;22.20;57.50;;;;;;5093288;28;20246;-67
2023/10/02 06:14:39;;;;;;;5.30;3.70;;;22.20;57.50;;;;;;5093146;28;20435;-67
2023/10/02 06:17:11;;;;;;;4.50;3.20;;;22.20;57.50;;;;;;5093198;28;20761;-67
2023/10/02 06:19:42;;;;;;;4.90;3.20;;;22.20;57.50;;;;;;5093041;28;20447;-66
2023/10/02 06:22:13;;;;;;;4.50;3.20;;;22.10;57.50;;;;;;5093128;28;21120;-68
2023/10/02 06:24:40;;;;;;;4.33;3.67;;;22.10;57.50;;;;;;5093345;28;20497;-67
2023/10/02 06:27:13;;;;;;;5.07;3.63;;;22.10;57.50;;;;;;5093015;28;20407;-66
2023/10/02 06:29:40;;;;;;;3.67;3.07;;;22.20;57.50;;;;;;5092989;28;20406;-67
2023/10/02 06:32:09;;;;;;;4.13;3.63;;;22.10;57.50;;;;;;5092844;28;20447;-64
2023/10/02 06:34:39;;;;;;;4.27;3.43;;;22.20;57.50;;;;;;5092732;28;20431;-64
2023/10/02 06:37:07;;;;;;;5.97;4.37;;;22.10;57.50;;;;;;5092886;28;20446;-66
2023/10/02 06:39:37;;;;;;;4.90;4.17;;;22.10;57.50;;;;;;5092187;28;20404;-65
2023/10/02 06:42:10;;;;;;;8.50;4.07;;;22.10;57.50;;;;;;5092692;28;20404;-65
2023/10/02 06:44:52;;;;;;;5.80;4.20;;;22.10;57.50;;;;;;5092655;28;20947;-66
2023/10/02 06:47:23;;;;;;;4.47;3.67;;;22.10;57.50;;;;;;5092967;28;20537;-66
2023/10/02 06:49:51;;;;;;;4.90;3.60;;;22.10;57.50;;;;;;5092912;28;20479;-66
2023/10/02 06:52:20;;;;;;;4.93;3.80;;;22.10;57.50;;;;;;5092434;28;21069;-66
2023/10/02 06:54:49;;;;;;;5.63;3.70;;;22.10;57.50;;;;;;5092372;28;20423;-65
2023/10/02 06:57:20;;;;;;;4.63;3.30;;;22.10;58.00;;;;;;5092429;28;20435;-68
2023/10/02 06:59:54;;;;;;;4.53;3.63;;;22.10;57.50;;;;;;5092427;28;20414;-67
2023/10/02 07:02:27;;;;;;;5.23;3.70;;;22.20;57.50;;;;;;5092401;28;20388;-64
2023/10/02 07:04:55;;;;;;;4.73;3.80;;;22.20;57.50;;;;;;5092377;28;20399;-66
2023/10/02 07:07:26;;;;;;;5.63;4.13;;;22.10;57.50;;;;;;5092194;28;20491;-64
2023/10/02 07:09:54;;;;;;;4.50;3.57;;;22.20;57.50;;;;;;5092167;28;20411;-66
2023/10/02 07:12:20;;;;;;;4.30;3.57;;;22.10;57.40;;;;;;5092141;28;20974;-67
2023/10/02 07:14:48;;;;;;;4.50;3.80;;;22.10;57.40;;;;;;5091971;28;20443;-67
2023/10/02 07:17:17;;;;;;;6.03;3.63;;;22.10;57.40;;;;;;5092110;28;20403;-67
2023/10/02 07:19:52;;;;;;;5.03;3.90;;;22.20;57.50;;;;;;5091865;28;20461;-67
2023/10/02 07:22:26;;;;;;;6.20;3.93;;;22.20;57.50;;;;;;5090559;28;20427;-67
2023/10/02 07:24:58;;;;;;;5.47;3.90;;;22.10;57.40;;;;;;5091963;28;20476;-67
2023/10/02 07:27:28;;;;;;;4.33;3.70;;;22.20;57.50;;;;;;5092097;28;20430;-65
2023/10/02 07:29:59;;;;;;;4.00;3.20;;;22.20;57.50;;;;;;5090350;28;20431;-67
2023/10/02 07:32:27;;;;;;;4.33;3.33;;;22.20;57.50;;;;;;5091909;28;20504;-66
2023/10/02 07:34:54;;;;;;;5.07;4.03;;;22.10;57.40;;;;;;5091970;28;20782;-66
2023/10/02 07:37:21;;;;;;;4.90;4.40;;;22.10;57.40;;;;;;5091597;28;20442;-66
2023/10/02 07:39:57;;;;;;;6.10;4.00;;;22.20;58.10;;;;;;5091580;28;20404;-67
2023/10/02 07:42:28;;;;;;;5.20;3.30;;;22.20;57.50;;;;;;5091638;28;20396;-66
2023/10/02 07:45:11;;;;;;;4.60;4.20;;;22.20;57.90;;;;;;5091896;28;20896;-68
2023/10/02 07:47:39;;;;;;;5.60;4.00;;;22.20;57.40;;;;;;5091478;28;20399;-66
2023/10/02 07:50:23;;;;;;;5.07;4.00;;;22.10;57.40;;;;;;5091439;28;20415;-65
2023/10/02 07:52:52;;;;;;;6.40;4.57;;;22.20;57.40;;;;;;5090846;28;20459;-68
2023/10/02 07:55:23;;;;;;;6.47;4.40;;;22.10;57.40;;;;;;5091342;28;20507;-67
2023/10/02 07:57:58;;;;;;;4.40;3.57;;;22.20;57.50;;;;;;5091304;28;20483;-64
2023/10/02 08:00:38;;;;;;;5.43;4.20;;;22.20;57.50;;;;;;5091395;28;20817;-65
2023/10/02 08:03:29;;;;;;;6.33;3.80;;;22.20;57.50;;;;;;5091197;28;20942;-64
2023/10/02 08:05:51;;;;;;;3.87;3.17;;;22.20;57.50;;;;;;5091129;28;20422;-68
2023/10/02 08:08:18;;;;;;;6.13;4.03;;;22.20;57.50;;;;;;5091523;28;20423;-66
2023/10/02 08:10:50;;;;;;;4.00;3.60;;;22.10;57.40;;;;;;5091176;28;20183;-67
2023/10/02 08:13:17;;;;;;;8.00;4.73;;;22.20;57.50;;;;;;5091222;28;20505;-67
2023/10/02 08:15:46;;;;;;;8.03;4.23;;;22.20;57.50;;;;;;5091112;28;20411;-67
2023/10/02 08:18:18;;;;;;;4.33;3.77;;;22.20;57.50;;;;;;5091191;28;20404;-67
2023/10/02 08:20:45;;;;;;;6.30;4.17;;;22.20;57.50;;;;;;5091066;28;20446;-66
2023/10/02 08:23:21;;;;;;;5.60;4.00;;;22.20;57.50;;;;;;5090926;28;20447;-67
2023/10/02 08:26:00;;;;;;;5.77;3.70;;;22.20;57.50;;;;;;5091013;28;20445;-65
2023/10/02 08:28:30;;;;;;;3.40;2.80;;;22.20;57.50;;;;;;5091104;28;20417;-65
2023/10/02 08:31:02;;;;;;;4.80;4.10;;;22.20;57.60;;;;;;5089752;28;20466;-66
2023/10/02 08:33:30;;;;;;;5.70;4.30;;;22.20;57.50;;;;;;5090832;28;20437;-68
2023/10/02 08:36:01;;;;;;;4.23;3.43;;;22.20;57.50;;;;;;5091054;28;20404;-64
2023/10/02 08:38:27;;;;;;;6.40;4.50;;;22.20;57.50;;;;;;5090906;28;20968;-68
2023/10/02 08:40:58;;;;;;;5.70;4.27;;;22.20;57.50;;;;;;5090887;28;20760;-67
2023/10/02 08:43:28;;;;;;;6.00;3.73;;;22.20;57.50;;;;;;5089482;28;20427;-68
2023/10/02 08:45:54;;;;;;;4.40;3.70;;;22.20;57.50;;;;;;5091054;28;20399;-68
2023/10/02 08:48:21;;;;;;;4.63;3.50;;;22.20;57.50;;;;;;5090701;28;20411;-65
2023/10/02 08:50:49;;;;;;;5.20;4.20;;;22.20;57.50;;;;;;5090583;28;20416;-65
2023/10/02 08:53:23;;;;;;;5.17;4.03;;;22.20;57.50;;;;;;5090761;28;20456;-67
2023/10/02 08:56:21;;;;;;;7.00;4.10;;;22.20;57.40;;;;;;5090644;28;20380;-68
2023/10/02 08:59:14;;;;;;;5.70;3.63;;;22.20;57.50;;;;;;5090495;28;20396;-65
2023/10/02 09:01:33;;;;;;;5.27;4.70;;;22.20;57.50;;;;;;5090494;28;20421;-68
2023/10/02 09:06:44;;;;;;;5.07;3.83;;;22.20;57.50;;;;;;5094624;28;20918;-66
2023/10/02 09:09:26;;;;;;;5.70;3.87;;;22.20;57.50;;;;;;5094532;28;20416;-67
2023/10/02 09:11:56;;;;;;;4.70;4.20;;;22.20;57.50;;;;;;5094439;28;20439;-66
2023/10/02 09:17:07;;;;;;;4.63;3.90;;;22.20;57.50;;;;;;5094742;28;20423;-67
2023/10/02 09:19:37;;;;;;;4.23;3.40;;;22.20;57.60;;;;;;5094454;28;20430;-66
2023/10/02 09:22:06;;;;;;;4.27;3.87;;;22.20;57.60;;;;;;5093993;28;20481;-66
2023/10/02 09:24:37;;;;;;;4.73;3.70;;;22.20;57.60;;;;;;5093690;28;20507;-67
2023/10/02 09:32:47;;;;;;;5.07;4.03;;;22.20;57.60;;;;;;5094020;28;20472;-67
2023/10/02 09:37:56;;;;;;;4.53;3.60;;;22.20;57.70;;;;;;5094357;28;20407;-67
2023/10/02 09:43:20;;;;;;;4.90;3.63;;;22.20;57.70;;;;;;5094143;28;20419;-67
2023/10/02 09:45:48;;;;;;;3.70;2.97;;;22.20;57.70;;;;;;5093800;28;20418;-67
2023/10/02 09:51:07;;;;;;;5.17;4.30;;;22.20;57.70;;;;;;5094007;28;20441;-65
2023/10/02 09:53:41;;;;;;;4.93;4.23;;;22.20;57.70;;;;;;5093659;28;20476;-70
2023/10/02 09:56:14;;;;;;;6.27;4.20;;;22.20;57.70;;;;;;5093721;28;20440;-66
2023/10/02 09:58:52;;;;;;;6.70;4.00;;;22.20;57.70;;;;;;5093649;28;20461;-67
2023/10/02 10:03:53;;;;;;;5.50;3.60;;;22.20;57.70;;;;;;5092269;28;20839;-63
2023/10/02 10:06:19;;;;;;;5.67;3.50;;;22.20;57.70;;;;;;5093511;28;20542;-68
2023/10/02 10:11:39;;;;;;;4.13;3.60;;;22.30;57.80;;;;;;5093316;28;20816;-66
2023/10/02 10:14:37;;;;;;;5.43;3.87;;;22.20;57.70;;;;;;5092185;28;20431;-64
2023/10/02 10:17:49;;;;;;;5.50;3.50;;;22.30;57.70;;;;;;5092929;28;20514;-65
2023/10/02 10:20:20;;;;;;;4.47;3.83;;;22.20;57.70;;;;;;5082625;28;20522;-67
2023/10/02 10:22:51;;;;;;;6.53;3.63;;;22.20;57.80;;;;;;5093382;28;20490;-64
2023/10/02 10:27:54;;;;;;;4.50;3.67;;;22.20;57.80;;;;;;5093185;28;20399;-68
2023/10/02 10:30:28;;;;;;;3.30;3.00;;;22.30;57.90;;;;;;5093349;28;20403;-67
2023/10/02 10:35:40;;;;;;;4.00;3.53;;;22.30;57.90;;;;;;5093233;28;20876;-67
2023/10/02 10:38:21;;;;;;;4.80;3.30;;;22.30;57.90;;;;;;5092880;28;20388;-67
2023/10/02 10:40:54;;;;;;;5.20;3.50;;;22.30;57.90;;;;;;5092856;28;21267;-66
2023/10/02 10:43:43;;;;;;;5.30;3.97;;;22.30;57.90;;;;;;5092647;28;20428;-67
2023/10/02 10:46:29;;;;;;;4.40;3.70;;;22.30;57.90;;;;;;5092678;28;20400;-67
2023/10/02 10:49:23;;;;;;;4.23;3.63;;;22.30;57.90;;;;;;5092410;28;20430;-68
2023/10/02 10:51:52;;;;;;;5.67;3.27;;;22.30;57.90;;;;;;5091091;28;20542;-67
2023/10/02 10:54:19;;;;;;;4.47;3.63;;;22.30;58.40;;;;;;5092380;28;20434;-68
2023/10/02 10:56:56;;;;;;;3.63;3.10;;;22.30;57.90;;;;;;5091472;28;20453;-66
2023/10/02 10:59:32;;;;;;;3.43;2.97;;;22.30;57.90;;;;;;5092513;28;20399;-68
2023/10/02 11:02:16;;;;;;;4.03;3.17;;;22.30;57.90;;;;;;5092661;28;20753;-65
2023/10/02 11:04:49;;;;;;;4.50;3.77;;;22.30;57.90;;;;;;5092232;28;20484;-67
2023/10/02 11:07:25;;;;;;;4.70;3.90;;;22.30;57.90;;;;;;5092273;28;20498;-68
2023/10/02 11:10:18;;;;;;;3.97;3.40;;;22.30;57.90;;;;;;5092267;28;20561;-66
2023/10/02 11:13:00;;;;;;;6.30;4.87;;;22.30;57.90;;;;;;5092145;28;20483;-67
2023/10/02 11:15:46;;;;;;;5.43;3.50;;;22.30;58.00;;;;;;5092940;28;20396;-67
2023/10/02 11:18:20;;;;;;;5.13;3.33;;;22.30;58.00;;;;;;5092941;28;20832;-68
2023/10/02 11:20:54;;;;;;;5.13;3.40;;;22.30;58.00;;;;;;5092781;28;20428;-68
2023/10/02 11:23:41;;;;;;;5.30;3.53;;;22.30;58.00;;;;;;5091720;28;20458;-67
2023/10/02 11:26:12;;;;;;;5.70;3.90;;;22.30;57.90;;;;;;5093013;28;20895;-63
2023/10/02 11:28:39;;;;;;;4.93;4.00;;;22.30;57.90;;;;;;5092920;28;20432;-67
2023/10/02 11:31:30;;;;;;;5.97;3.90;;;22.30;57.90;;;;;;5093159;28;20429;-65
2023/10/02 11:34:03;;;;;;;8.30;5.30;;;22.30;57.90;;;;;;5093116;28;20447;-66
2023/10/02 11:36:36;;;;;;;11.10;5.70;;;22.30;57.90;;;;;;5092932;28;20436;-65
2023/10/02 11:39:09;;;;;;;11.13;6.37;;;22.30;57.90;;;;;;5092831;28;20760;-67
2023/10/02 11:41:36;;;;;;;15.97;6.93;;;22.30;57.90;;;;;;5091500;28;20490;-67
2023/10/02 11:44:03;;;;;;;12.37;6.57;;;22.30;57.90;;;;;;5092674;28;20427;-66
2023/10/02 11:46:29;;;;;;;9.77;5.43;;;22.30;57.90;;;;;;5092341;28;20404;-67
2023/10/02 11:48:55;;;;;;;8.50;5.67;;;22.40;57.90;;;;;;5092772;28;20499;-68
2023/10/02 11:51:20;;;;;;;10.63;5.47;;;22.40;58.00;;;;;;5092424;28;20181;-66
2023/10/02 11:53:46;;;;;;;11.30;5.77;;;22.40;57.90;;;;;;5092442;28;20189;-68
2023/10/02 11:56:11;;;;;;;15.07;6.67;;;22.40;57.90;;;;;;5091737;28;20185;-66
2023/10/02 11:58:37;;;;;;;8.33;5.80;;;22.40;57.90;;;;;;5092196;28;20185;-67
2023/10/02 12:01:04;;;;;;;13.47;5.97;;;22.40;57.90;;;;;;5092291;28;20212;-66
2023/10/02 12:03:36;;;;;;;10.17;5.80;;;22.40;57.90;;;;;;5092091;28;20597;-68
2023/10/02 12:06:10;;;;;;;10.53;5.83;;;22.40;57.90;;;;;;5092351;28;20432;-67
2023/10/02 12:08:38;;;;;;;7.70;4.90;;;22.40;58.50;;;;;;5092038;28;20418;-68
2023/10/02 12:11:03;;;;;;;12.27;5.80;;;22.40;57.90;;;;;;5091925;28;20412;-68
2023/10/02 12:13:29;;;;;;;10.20;5.40;;;22.40;57.90;;;;;;5091587;28;20912;-65
2023/10/02 12:15:56;;;;;;;12.50;6.20;;;22.40;57.90;;;;;;5091830;28;20177;-66
2023/10/02 12:18:22;;;;;;;8.43;5.07;;;22.40;57.90;;;;;;5091880;28;20243;-66
2023/10/02 12:20:49;;;;;;;9.10;5.90;;;22.40;57.90;;;;;;5091863;28;20435;-67
2023/10/02 12:23:16;;;;;;;9.70;5.87;;;22.40;57.90;;;;;;5091624;28;21111;-67
2023/10/02 12:25:47;;;;;;;9.20;6.23;;;22.40;57.90;;;;;;5091558;28;20520;-65
2023/10/02 12:28:12;;;;;;;12.33;7.10;;;22.40;57.90;;;;;;5092022;28;20415;-67
2023/10/02 12:30:38;;;;;;;14.00;5.80;;;22.40;57.90;;;;;;5092053;28;20415;-64
2023/10/02 12:33:04;;;;;;;9.83;5.80;;;22.40;57.90;;;;;;5091531;28;20673;-68
2023/10/02 12:35:33;;;;;;;11.10;6.40;;;22.40;57.90;;;;;;5091734;28;20272;-66
2023/10/02 12:37:59;;;;;;;11.20;6.00;;;22.40;58.50;;;;;;5091000;28;20403;-66
2023/10/02 12:40:31;;;;;;;10.43;5.33;;;22.40;57.90;;;;;;5091183;28;20411;-67
2023/10/02 12:43:03;;;;;;;9.80;6.00;;;22.40;57.90;;;;;;5091138;28;20943;-66
2023/10/02 12:45:35;;;;;;;11.50;6.90;;;22.40;57.90;;;;;;5090973;28;20395;-67
2023/10/02 12:48:06;;;;;;;9.97;5.73;;;22.40;57.90;;;;;;5090919;28;20385;-65
2023/10/02 12:50:42;;;;;;;12.77;6.40;;;22.40;57.90;;;;;;5090941;28;20946;-67
2023/10/02 12:53:10;;;;;;;11.37;7.43;;;22.40;57.90;;;;;;5091480;28;20486;-67
2023/10/02 12:55:36;;;;;;;12.07;7.10;;;22.40;57.90;;;;;;5089826;28;21268;-66
2023/10/02 12:58:04;;;;;;;8.63;6.07;;;22.40;57.90;;;;;;5090750;28;20419;-65
2023/10/02 13:00:33;;;;;;;10.03;6.03;;;22.40;57.90;;;;;;5090899;28;20938;-67
2023/10/02 13:02:59;;;;;;;10.67;6.20;;;22.40;57.80;;;;;;5089327;28;20443;-66
2023/10/02 13:05:29;;;;;;;9.00;5.73;;;22.40;57.90;;;;;;5090758;28;20782;-65
2023/10/02 13:07:56;;;;;;;10.67;6.13;;;22.40;57.80;;;;;;5090626;28;20446;-67
2023/10/02 13:10:25;;;;;;;10.03;4.87;;;22.40;57.80;;;;;;5089263;28;20832;-68
2023/10/02 13:12:51;;;;;;;11.43;6.10;;;22.40;57.80;;;;;;5090751;28;20884;-65
2023/10/02 13:15:16;;;;;;;12.00;6.17;;;22.40;58.40;;;;;;5090595;28;20414;-66
2023/10/02 13:17:43;;;;;;;13.27;6.47;;;22.40;57.90;;;;;;5090636;28;20407;-67
2023/10/02 13:20:10;;;;;;;10.10;6.27;;;22.40;57.80;;;;;;5090632;28;20185;-66
2023/10/02 13:22:36;;;;;;;16.13;6.87;;;22.40;57.90;;;;;;5090613;28;20419;-69
2023/10/02 13:25:05;;;;;;;7.87;5.17;;;22.40;57.90;;;;;;5091146;28;20943;-66
2023/10/02 13:27:31;;;;;;;11.43;6.40;;;22.40;57.80;;;;;;5089812;28;20506;-66
2023/10/02 13:29:58;;;;;;;7.83;5.93;;;22.40;57.90;;;;;;5090543;28;20553;-67
2023/10/02 13:32:23;;;;;;;10.73;6.37;;;22.40;57.80;;;;;;5090632;28;20202;-66
2023/10/02 13:34:51;;;;;;;9.40;5.73;;;22.40;57.80;;;;;;5089268;28;20439;-67
2023/10/02 13:37:17;;;;;;;9.63;5.70;;;22.40;57.80;;;;;;5090512;28;20548;-66
2023/10/02 13:39:43;;;;;;;12.40;6.77;;;22.40;57.90;;;;;;5090601;28;20500;-65
2023/10/02 13:42:08;;;;;;;12.30;6.30;;;22.40;57.80;;;;;;5090540;28;20235;-67
2023/10/02 13:44:34;;;;;;;9.73;6.03;;;22.40;58.00;;;;;;5089112;28;20436;-66
2023/10/02 13:47:00;;;;;;;9.43;6.13;;;22.50;58.00;;;;;;5090485;28;20238;-65
2023/10/02 13:49:27;;;;;;;10.93;6.33;;;22.40;57.90;;;;;;5089763;28;20207;-65
2023/10/02 13:51:52;;;;;;;9.63;6.63;;;22.40;57.90;;;;;;5094283;28;20451;-67
2023/10/02 13:54:18;;;;;;;12.23;7.40;;;22.50;58.00;;;;;;5094016;28;20450;-66
2023/10/02 13:56:45;;;;;;;11.13;6.70;;;22.40;57.90;;;;;;5094167;28;20576;-65
2023/10/02 13:59:11;;;;;;;10.03;6.73;;;22.50;58.00;;;;;;5094282;28;20407;-65
2023/10/02 14:01:37;;;;;;;13.17;7.03;;;22.50;58.00;;;;;;5093862;28;20416;-68
2023/10/02 14:04:10;;;;;;;10.30;6.23;;;22.40;57.90;;;;;;5093575;28;20190;-66
2023/10/02 14:06:35;;;;;;;10.57;6.70;;;22.50;57.90;;;;;;5093548;28;20610;-66
2023/10/02 14:09:03;;;;;;;11.80;7.87;;;22.50;58.00;;;;;;5093432;28;20407;-66
2023/10/02 14:11:29;;;;;;;10.20;6.30;;;22.50;58.00;;;;;;5093179;28;20261;-65